Capitol Logistics 7458

Operating for MZN



TJSJ
Luis Munoz Marin International Airport
San Juan, PR
KCLT
Charlotte/Douglas International Airport
Charlotte, US

Activity Log

Date Flight Route Aircraft Duration
No Flights Yet

Route Details

Aircraft Information
Primary: Boeing 737-800BCF
Backup: Boeing 757-200SF
Route Data
Distance: 1285nm
Duration: 3h 29m
Recm'd Route: ACONY3 PALDE DONQU Y185 RENAH Y355 NUCAR G446 PERIE AR7 PITRW STOCR3
Origin Wx: TJSJ 141856Z 35011KT 10SM SCT034 28/22 A2995 RMK AO2 SLP139 T02830222
Dest. Wx: KCLT 141852Z 20011KT 10SM FEW060 SCT120 BKN250 28/11 A2997 RMK AO2 SLP143 T02830111
Notes: